Dishforth, United Kingdom
Current Conditions -  °F | °C
As of 4:50 PM on Monday 22 Dec 2014 (Local Time) from EGXD Reporting Station
Overcast Overcast  
Wind Chill: 54°   Ceiling: 1400
Heat Index: 54°   Visibility: 6mi
Dew Point: 48°   Wind: 8mph
Humidity: 82%   Direction: 200°SSW
Pressure: 29.77"   Gusts: NA
Location:  54.13°N, 1.42°W
Report Text: EGXD 221650Z AUTO 20007KT 9999 // OVC014/// 12/09 Q1008
Loading
Personal Weather Stations






























Interactive Weather Map New forecast layout! Learn more

10-Day Weather Forecast

Advertisements
Track Severe Weather on mobile